createdAt,value
2023-07-03T04:17:52.188Z,6.10
2023-07-03T04:20:55.890Z,5.65
2023-07-03T04:23:58.483Z,5.62
2023-07-03T04:27:01.440Z,5.60
2023-07-03T04:30:05.839Z,5.75
2023-07-03T04:33:08.765Z,5.43
2023-07-03T04:36:13.164Z,5.65
2023-07-03T04:39:17.006Z,5.50
2023-07-03T04:42:19.664Z,5.40
2023-07-03T04:45:22.694Z,6.93
2023-07-03T04:48:25.824Z,5.87
2023-07-03T04:51:32.485Z,5.60
2023-07-03T04:54:36.311Z,5.95
2023-07-03T04:57:40.073Z,5.70
2023-07-03T05:00:42.806Z,5.25
2023-07-03T05:03:45.597Z,5.57
2023-07-03T05:06:48.451Z,5.57
2023-07-03T05:09:51.336Z,5.15
2023-07-03T05:12:53.995Z,5.07
2023-07-03T05:15:56.933Z,5.70
2023-07-03T05:18:59.556Z,5.22
2023-07-03T05:22:02.307Z,5.12
2023-07-03T05:25:05.422Z,5.00
2023-07-03T05:28:08.318Z,4.68
2023-07-03T05:31:10.854Z,5.03
2023-07-03T05:34:13.670Z,5.05
2023-07-03T05:37:16.274Z,4.85
2023-07-03T05:40:19.511Z,4.80
2023-07-03T05:43:22.602Z,4.70
2023-07-03T05:46:25.446Z,4.80
2023-07-03T05:49:27.991Z,4.20
2023-07-03T05:52:31.050Z,4.93
2023-07-03T05:55:33.624Z,4.47
2023-07-03T05:58:36.488Z,4.25
2023-07-03T06:01:39.073Z,4.47
2023-07-03T06:04:42.511Z,4.70
2023-07-03T06:07:45.211Z,4.65
2023-07-03T06:10:48.123Z,4.60
2023-07-03T06:13:50.669Z,4.57
2023-07-03T06:16:53.846Z,4.30
2023-07-03T06:19:56.605Z,4.32
2023-07-03T06:22:59.448Z,4.43
2023-07-03T06:26:02.036Z,4.53
2023-07-03T06:29:04.941Z,3.83
2023-07-03T06:32:09.730Z,4.40
2023-07-03T06:35:12.595Z,4.10
2023-07-03T06:38:15.131Z,3.53
2023-07-03T06:41:18.209Z,4.40
2023-07-03T06:44:21.572Z,4.22
2023-07-03T06:47:24.561Z,4.07
2023-07-03T06:50:27.104Z,4.12
2023-07-03T06:53:30.059Z,3.87
2023-07-03T06:56:32.734Z,4.20
2023-07-03T06:59:37.346Z,4.03
2023-07-03T07:02:40.157Z,3.75
2023-07-03T07:05:43.657Z,3.95
2023-07-03T07:08:46.627Z,4.03
2023-07-03T07:11:49.536Z,3.50
2023-07-03T07:14:52.132Z,3.40
2023-07-03T07:17:54.923Z,3.78
2023-07-03T07:20:57.601Z,4.35
2023-07-03T07:24:03.895Z,3.83
2023-07-03T07:27:06.730Z,4.18
2023-07-03T07:30:10.373Z,3.65
2023-07-03T07:33:12.955Z,4.20
2023-07-03T07:36:17.224Z,3.70
2023-07-03T07:39:21.225Z,4.00
2023-07-03T07:42:24.140Z,4.18
2023-07-03T07:45:26.595Z,4.70
2023-07-03T07:48:32.044Z,3.87
2023-07-03T07:51:36.619Z,5.18
2023-07-03T07:54:39.474Z,4.55
2023-07-03T07:57:42.265Z,4.65
2023-07-03T08:00:45.420Z,5.20
2023-07-03T08:03:48.930Z,5.90
2023-07-03T08:06:51.510Z,5.80
2023-07-03T08:09:54.333Z,6.03
2023-07-03T08:12:56.909Z,6.05
2023-07-03T08:16:00.569Z,6.47
2023-07-03T08:19:04.148Z,6.50
2023-07-03T08:22:07.031Z,7.12
2023-07-03T08:25:10.846Z,7.15
2023-07-03T08:28:13.951Z,7.37
2023-07-03T08:31:17.064Z,6.47
2023-07-03T08:34:19.931Z,6.97
2023-07-03T08:37:25.490Z,6.95
2023-07-03T08:40:28.412Z,7.10
2023-07-03T08:43:37.344Z,6.70
2023-07-03T08:46:42.113Z,7.47
2023-07-03T08:49:46.559Z,7.75
2023-07-03T08:52:57.582Z,7.00
2023-07-03T08:56:18.699Z,7.12
2023-07-03T08:59:21.853Z,7.35
2023-07-03T09:02:38.551Z,7.55
2023-07-03T09:06:09.018Z,7.50
2023-07-03T09:09:36.333Z,7.37
2023-07-03T09:12:54.261Z,7.85
2023-07-03T09:16:08.010Z,9.15
2023-07-03T09:19:22.294Z,9.10
2023-07-03T09:22:45.260Z,9.35
2023-07-03T09:26:08.903Z,8.93
2023-07-03T09:29:13.896Z,8.82
2023-07-03T09:32:25.402Z,8.52
2023-07-03T09:35:37.893Z,9.32
2023-07-03T09:38:40.920Z,8.93
2023-07-03T09:41:43.949Z,9.25
2023-07-03T09:44:47.845Z,8.95
2023-07-03T09:47:54.387Z,9.05
2023-07-03T09:51:07.160Z,8.85
2023-07-03T09:54:23.212Z,8.30
2023-07-03T09:57:28.851Z,9.18
2023-07-03T10:00:31.694Z,8.43
2023-07-03T10:03:36.622Z,8.60
2023-07-03T10:06:43.076Z,9.20
2023-07-03T10:13:00.610Z,8.98
2023-07-03T10:16:05.551Z,8.52
2023-07-03T10:19:10.584Z,9.27
2023-07-03T10:22:16.354Z,8.95
2023-07-03T10:25:27.942Z,9.43
2023-07-03T10:28:52.828Z,10.23
2023-07-03T10:32:09.926Z,9.23
2023-07-03T10:35:31.176Z,9.02
2023-07-03T10:38:36.852Z,9.82
2023-07-03T10:41:46.920Z,9.63
2023-07-03T10:44:53.378Z,8.75
2023-07-03T10:48:23.420Z,9.35
2023-07-03T10:51:36.844Z,9.32
2023-07-03T10:54:47.005Z,9.00
2023-07-03T10:58:22.254Z,9.05
2023-07-03T11:01:57.463Z,8.48
2023-07-03T11:05:49.933Z,9.02
2023-07-03T11:09:04.818Z,8.85
2023-07-03T11:12:17.345Z,9.00
2023-07-03T11:16:02.638Z,8.18
2023-07-03T11:22:43.207Z,8.75
2023-07-03T11:29:07.174Z,8.05
2023-07-03T11:32:10.873Z,7.82
2023-07-03T11:44:59.562Z,7.82
2023-07-03T11:48:02.569Z,7.97
2023-07-03T11:51:13.927Z,8.25
2023-07-03T11:54:18.635Z,8.10
2023-07-03T11:57:29.361Z,7.78
2023-07-03T12:00:33.769Z,7.60
2023-07-03T12:03:55.023Z,7.95
2023-07-03T12:06:57.734Z,7.60
2023-07-03T12:10:18.832Z,7.25
2023-07-03T12:13:43.231Z,8.27
2023-07-03T12:16:48.969Z,8.20
2023-07-03T12:20:08.511Z,8.10
2023-07-03T12:23:11.465Z,8.77
2023-07-03T12:26:17.423Z,7.65
2023-07-03T12:29:23.276Z,8.20
2023-07-03T12:32:34.966Z,8.52
2023-07-03T12:35:44.268Z,8.23
2023-07-03T12:38:46.945Z,8.67
2023-07-03T12:41:49.957Z,9.10
2023-07-03T12:44:53.814Z,9.23
2023-07-03T12:48:18.342Z,8.82
2023-07-03T12:51:20.827Z,8.40
2023-07-03T12:54:24.147Z,8.32
2023-07-03T12:57:28.458Z,8.77
2023-07-03T13:00:33.892Z,8.82
2023-07-03T13:03:41.388Z,9.27
2023-07-03T13:06:45.208Z,8.77
2023-07-03T13:09:48.930Z,9.13
2023-07-03T13:13:18.900Z,9.50
2023-07-03T13:16:21.700Z,9.80
2023-07-03T13:19:35.993Z,9.68
2023-07-03T13:22:38.814Z,10.00
2023-07-03T13:25:52.392Z,9.68
2023-07-03T13:29:00.710Z,10.07
2023-07-03T13:32:14.570Z,9.27
2023-07-03T13:35:27.244Z,9.88
2023-07-03T13:38:32.006Z,9.68
2023-07-03T13:41:35.375Z,9.82
2023-07-03T13:44:38.216Z,9.55
2023-07-03T13:47:40.725Z,9.40
2023-07-03T13:50:44.441Z,9.45
2023-07-03T13:53:51.139Z,9.23
2023-07-03T13:56:56.415Z,9.52
2023-07-03T13:59:59.088Z,9.43
2023-07-03T14:03:02.241Z,9.52
2023-07-03T14:06:07.523Z,9.55
2023-07-03T14:09:11.035Z,9.18
2023-07-03T14:12:13.985Z,8.93
2023-07-03T14:15:20.697Z,8.98
2023-07-03T14:18:23.531Z,9.55
2023-07-03T14:21:26.177Z,9.38
2023-07-03T14:24:29.095Z,9.82
2023-07-03T14:27:36.106Z,9.30
2023-07-03T14:30:39.134Z,9.43
2023-07-03T14:33:42.066Z,9.65
2023-07-03T14:36:45.127Z,9.32
2023-07-03T14:39:47.639Z,8.90
2023-07-03T14:42:50.521Z,9.85
2023-07-03T14:45:53.343Z,9.48
2023-07-03T14:48:56.342Z,10.00
2023-07-03T14:51:58.840Z,8.70
2023-07-03T14:55:01.603Z,9.15
2023-07-03T14:58:04.172Z,8.95
2023-07-03T15:01:07.116Z,9.40
2023-07-03T15:04:13.456Z,9.32
2023-07-03T15:07:16.679Z,9.10
2023-07-03T15:10:19.304Z,9.38
2023-07-03T15:13:22.316Z,9.15
